Observations for Trim Patrick St
| Time | AQI | Temp °C | Hum % | Pres Pa | CO μg/m³ | H₂S μg/m³ | NO μg/m³ | NO₂ μg/m³ | O₃ μg/m³ | SO₂ μg/m³ | PM1 μg/m³ | PM2.5 μg/m³ | PM10 μg/m³ |
|---|---|---|---|---|---|---|---|---|---|---|---|---|---|
| Saturday 8 August 2026 | |||||||||||||
| 00:19 | 2 | 14.5 | 72 | 38,450 | 0.14 | 12.58 | 3 | 53.64 | 36.17 | 0 | 3.71 | 7.91 | 8.7 |
| 00:18 | 2 | 14.5 | 71 | 38,446 | 0.13 | 8.6 | 3.27 | 47.23 | 12.81 | 0 | 3.71 | 8.68 | 9.55 |
| 00:17 | 2 | 14.5 | 70 | 38,441 | 0.13 | 8.11 | 3.31 | 27.92 | 16.78 | 0 | 3.71 | 8.02 | 8.82 |
| 00:16 | 2 | 14.5 | 69 | 38,434 | 0.11 | 9.93 | 3.3 | 33.09 | 13.19 | 0 | 2 | 5.93 | 6.52 |
| 00:15 | 2 | 14.6 | 68 | 38,425 | 0.11 | 11.26 | 2.66 | 42.56 | 17.88 | 0 | 3.71 | 8.22 | 9.04 |
| 00:14 | 2 | 14.6 | 64 | 38,413 | 0.11 | 12.35 | 1.65 | 42.5 | 19.19 | 0 | 3.71 | 9.24 | 10.16 |
| 00:13 | 2 | 14.6 | 67 | 38,397 | 0.12 | 12.58 | 1.91 | 50.13 | 26.96 | 0 | 3.71 | 7.54 | 8.3 |
| 00:12 | 2 | 14.7 | 68 | 38,376 | 0.11 | 12.22 | 2.13 | 48.92 | 21.87 | 0 | 5.43 | 9.62 | 10.58 |
| 00:11 | 2 | 14.7 | 69 | 38,349 | 0.1 | 11.13 | 2.07 | 45.58 | 21.1 | 0 | 3.71 | 8.13 | 8.94 |
| 00:10 | 2 | 14.7 | 65 | 38,311 | 0.11 | 12.43 | 1.94 | 42.99 | 18.12 | 0 | 3.71 | 7.68 | 8.45 |
| 00:09 | 2 | 14.8 | 67 | 38,261 | 0.12 | 12.74 | 2.19 | 43.61 | 13.43 | 0.25 | 2.86 | 7.52 | 8.27 |
| 00:08 | 2 | 14.8 | 65 | 38,193 | 0.11 | 13.11 | 1.89 | 51.85 | 23.79 | 0 | 4.57 | 10.59 | 11.65 |
| 00:07 | 2 | 14.8 | 68 | 38,105 | 0.11 | 13 | 2.09 | 52.24 | 20.49 | 0 | 3.71 | 8.88 | 9.77 |
| 00:06 | 2 | 14.8 | 69 | 37,987 | 0.11 | 13.47 | 2.76 | 49.72 | 17.3 | 0 | 2.86 | 7.41 | 8.15 |
| 00:05 | 2 | 14.9 | 68 | 37,829 | 0.12 | 13.94 | 2.38 | 55.52 | 25.49 | 0 | 3.71 | 8.16 | 8.97 |
| 00:04 | 2 | 14.9 | 69 | 37,617 | 0.11 | 13.37 | 3.03 | 58.95 | 29.3 | 0 | 4.57 | 8.81 | 9.69 |
| 00:03 | 2 | 14.9 | 70 | 37,336 | 0.11 | 9.91 | 3.11 | 36.21 | 16.37 | 0 | 2.86 | 7.33 | 8.06 |
| 00:02 | 2 | 15 | 70 | 36,962 | 0.1 | 10.98 | 3.18 | 44.51 | 13.57 | 0 | 3.71 | 8.07 | 8.88 |
| 00:01 | 2 | 15 | 69 | 36,462 | 0.1 | 13.32 | 2.5 | 41.06 | 15.5 | 0 | 3.71 | 8.12 | 8.93 |
| 00:00 | 2 | 15 | 68 | 35,796 | 0.11 | 13.95 | 2.73 | 53.73 | 29.84 | 0.44 | 4.57 | 8.87 | 9.75 |